Terminal Aerodrome Forecast
Issued by NWS

Home | Current Version | Previous Version | Text Only | Print | Product List | Glossary On
Versions: 1 2 3 4 5 6 7 8 9 10 11 12 13 14 15 16 17 18 19 20 21 22 23 24 25 26 27 28 29 30 31 32 33 34 35 36 37 38 39 40 41 42
000
FTUS46 KOTX 250530
TAFCOE
TAF
KCOE 250530Z 2506/2606 08003KT P6SM VCSH OVC080
     FM250800 23005KT 3SM BR BCFG SCT001 SCT080
     FM250900 22003KT 2SM BCFG VCSH SCT001 BKN080
     FM251500 23005KT 4SM BR BKN010
     FM251900 23009KT P6SM SCT025 BKN200
     FM260400 22005KT P6SM VCSH BKN040 OVC090=

USA.gov is the U.S. government's official web portal to all federal, state and local government web resources and services.